sensor_id;sensor_type;location;lat;lon;timestamp;P1;durP1;ratioP1;P2;durP2;ratioP2
11113;SDS011;5610;52.154;9.198;2023-02-28T00:02:11;5.85;;;4.00;;
11113;SDS011;5610;52.154;9.198;2023-02-28T00:04:57;5.18;;;4.53;;
11113;SDS011;5610;52.154;9.198;2023-02-28T00:07:44;4.50;;;3.80;;
11113;SDS011;5610;52.154;9.198;2023-02-28T00:10:30;4.88;;;3.58;;
11113;SDS011;5610;52.154;9.198;2023-02-28T00:13:17;4.28;;;3.88;;
11113;SDS011;5610;52.154;9.198;2023-02-28T00:16:04;7.03;;;3.45;;
11113;SDS011;5610;52.154;9.198;2023-02-28T00:18:52;6.32;;;2.40;;
11113;SDS011;5610;52.154;9.198;2023-02-28T00:21:37;3.45;;;2.85;;
11113;SDS011;5610;52.154;9.198;2023-02-28T00:24:24;2.70;;;2.28;;
11113;SDS011;5610;52.154;9.198;2023-02-28T00:27:09;3.45;;;2.45;;
11113;SDS011;5610;52.154;9.198;2023-02-28T00:29:56;3.08;;;2.63;;
11113;SDS011;5610;52.154;9.198;2023-02-28T00:32:41;5.35;;;2.78;;
11113;SDS011;5610;52.154;9.198;2023-02-28T00:35:27;1.80;;;1.70;;
11113;SDS011;5610;52.154;9.198;2023-02-28T00:38:12;3.00;;;1.67;;
11113;SDS011;5610;52.154;9.198;2023-02-28T00:40:57;2.38;;;2.00;;
11113;SDS011;5610;52.154;9.198;2023-02-28T00:43:48;2.40;;;2.20;;
11113;SDS011;5610;52.154;9.198;2023-02-28T00:46:34;2.63;;;2.00;;
11113;SDS011;5610;52.154;9.198;2023-02-28T00:49:20;5.68;;;2.00;;
11113;SDS011;5610;52.154;9.198;2023-02-28T00:52:05;3.17;;;1.70;;
11113;SDS011;5610;52.154;9.198;2023-02-28T00:54:51;2.42;;;2.20;;
11113;SDS011;5610;52.154;9.198;2023-02-28T00:57:36;2.45;;;1.90;;
11113;SDS011;5610;52.154;9.198;2023-02-28T01:00:21;2.70;;;2.33;;
11113;SDS011;5610;52.154;9.198;2023-02-28T01:03:09;2.80;;;2.25;;
11113;SDS011;5610;52.154;9.198;2023-02-28T01:05:54;4.13;;;1.90;;
11113;SDS011;5610;52.154;9.198;2023-02-28T01:08:39;2.97;;;1.98;;
11113;SDS011;5610;52.154;9.198;2023-02-28T01:11:25;1.90;;;1.80;;
11113;SDS011;5610;52.154;9.198;2023-02-28T01:14:11;2.33;;;2.10;;
11113;SDS011;5610;52.154;9.198;2023-02-28T01:16:57;2.30;;;1.98;;
11113;SDS011;5610;52.154;9.198;2023-02-28T01:19:44;3.72;;;2.00;;
11113;SDS011;5610;52.154;9.198;2023-02-28T01:22:29;3.10;;;1.88;;
11113;SDS011;5610;52.154;9.198;2023-02-28T01:25:14;3.45;;;2.40;;
11113;SDS011;5610;52.154;9.198;2023-02-28T01:28:00;2.97;;;2.10;;
11113;SDS011;5610;52.154;9.198;2023-02-28T01:30:47;2.53;;;2.33;;
11113;SDS011;5610;52.154;9.198;2023-02-28T01:33:33;2.90;;;2.30;;
11113;SDS011;5610;52.154;9.198;2023-02-28T01:36:20;3.83;;;2.20;;
11113;SDS011;5610;52.154;9.198;2023-02-28T01:39:07;1.60;;;1.50;;
11113;SDS011;5610;52.154;9.198;2023-02-28T01:41:52;1.60;;;1.50;;
11113;SDS011;5610;52.154;9.198;2023-02-28T01:44:55;4.72;;;2.50;;
11113;SDS011;5610;52.154;9.198;2023-02-28T01:47:43;2.50;;;2.30;;
11113;SDS011;5610;52.154;9.198;2023-02-28T01:50:34;2.63;;;2.28;;
11113;SDS011;5610;52.154;9.198;2023-02-28T01:53:29;2.97;;;2.67;;
11113;SDS011;5610;52.154;9.198;2023-02-28T01:56:19;3.13;;;2.83;;
11113;SDS011;5610;52.154;9.198;2023-02-28T01:59:08;3.97;;;3.00;;
11113;SDS011;5610;52.154;9.198;2023-02-28T02:01:53;2.90;;;2.22;;
11113;SDS011;5610;52.154;9.198;2023-02-28T02:04:40;4.25;;;2.60;;
11113;SDS011;5610;52.154;9.198;2023-02-28T02:07:33;3.25;;;2.70;;
11113;SDS011;5610;52.154;9.198;2023-02-28T02:10:24;2.35;;;2.15;;
11113;SDS011;5610;52.154;9.198;2023-02-28T02:13:21;3.72;;;2.47;;
11113;SDS011;5610;52.154;9.198;2023-02-28T02:16:18;3.45;;;2.45;;
11113;SDS011;5610;52.154;9.198;2023-02-28T02:19:15;2.88;;;2.45;;
11113;SDS011;5610;52.154;9.198;2023-02-28T02:25:47;4.13;;;3.50;;
11113;SDS011;5610;52.154;9.198;2023-02-28T02:28:42;5.80;;;3.75;;
11113;SDS011;5610;52.154;9.198;2023-02-28T02:31:48;7.43;;;4.05;;
11113;SDS011;5610;52.154;9.198;2023-02-28T02:34:51;5.40;;;3.28;;
11113;SDS011;5610;52.154;9.198;2023-02-28T02:37:46;3.78;;;3.38;;
11113;SDS011;5610;52.154;9.198;2023-02-28T02:40:37;4.15;;;3.75;;
11113;SDS011;5610;52.154;9.198;2023-02-28T02:43:29;3.28;;;2.97;;
11113;SDS011;5610;52.154;9.198;2023-02-28T02:46:19;2.92;;;2.65;;
11113;SDS011;5610;52.154;9.198;2023-02-28T02:49:08;3.83;;;3.15;;
11113;SDS011;5610;52.154;9.198;2023-02-28T02:52:00;2.70;;;2.50;;
11113;SDS011;5610;52.154;9.198;2023-02-28T02:54:50;2.40;;;2.20;;
11113;SDS011;5610;52.154;9.198;2023-02-28T02:57:40;2.58;;;2.38;;
11113;SDS011;5610;52.154;9.198;2023-02-28T03:00:32;3.80;;;2.70;;
11113;SDS011;5610;52.154;9.198;2023-02-28T03:03:22;2.53;;;2.33;;
11113;SDS011;5610;52.154;9.198;2023-02-28T03:06:14;5.40;;;3.28;;
11113;SDS011;5610;52.154;9.198;2023-02-28T03:09:01;5.82;;;3.03;;
11113;SDS011;5610;52.154;9.198;2023-02-28T03:11:46;3.58;;;2.75;;
11113;SDS011;5610;52.154;9.198;2023-02-28T03:14:39;3.85;;;2.72;;
11113;SDS011;5610;52.154;9.198;2023-02-28T03:17:38;4.95;;;3.55;;
11113;SDS011;5610;52.154;9.198;2023-02-28T03:20:35;3.47;;;3.17;;
11113;SDS011;5610;52.154;9.198;2023-02-28T03:23:27;5.03;;;3.63;;
11113;SDS011;5610;52.154;9.198;2023-02-28T03:26:26;5.95;;;3.00;;
11113;SDS011;5610;52.154;9.198;2023-02-28T03:29:15;3.55;;;3.25;;
11113;SDS011;5610;52.154;9.198;2023-02-28T03:32:08;3.78;;;3.10;;
11113;SDS011;5610;52.154;9.198;2023-02-28T03:35:02;4.65;;;2.60;;
11113;SDS011;5610;52.154;9.198;2023-02-28T03:37:54;3.20;;;2.88;;
11113;SDS011;5610;52.154;9.198;2023-02-28T03:40:46;4.80;;;2.85;;
11113;SDS011;5610;52.154;9.198;2023-02-28T03:43:37;3.10;;;2.80;;
11113;SDS011;5610;52.154;9.198;2023-02-28T03:46:27;3.83;;;2.55;;
11113;SDS011;5610;52.154;9.198;2023-02-28T03:49:17;3.33;;;2.90;;
11113;SDS011;5610;52.154;9.198;2023-02-28T03:52:05;3.03;;;2.70;;
11113;SDS011;5610;52.154;9.198;2023-02-28T03:54:54;4.35;;;3.00;;
11113;SDS011;5610;52.154;9.198;2023-02-28T03:57:55;3.00;;;2.78;;
11113;SDS011;5610;52.154;9.198;2023-02-28T04:00:46;4.05;;;3.58;;
11113;SDS011;5610;52.154;9.198;2023-02-28T04:03:34;3.92;;;2.63;;
11113;SDS011;5610;52.154;9.198;2023-02-28T04:06:21;2.55;;;2.35;;
11113;SDS011;5610;52.154;9.198;2023-02-28T04:09:08;2.72;;;2.53;;
11113;SDS011;5610;52.154;9.198;2023-02-28T04:11:55;2.55;;;2.35;;
11113;SDS011;5610;52.154;9.198;2023-02-28T04:14:40;3.33;;;2.67;;
11113;SDS011;5610;52.154;9.198;2023-02-28T04:17:27;2.60;;;2.40;;
11113;SDS011;5610;52.154;9.198;2023-02-28T04:20:12;3.38;;;3.08;;
11113;SDS011;5610;52.154;9.198;2023-02-28T04:22:58;2.70;;;2.50;;
11113;SDS011;5610;52.154;9.198;2023-02-28T04:25:43;3.40;;;2.50;;
11113;SDS011;5610;52.154;9.198;2023-02-28T04:28:29;2.38;;;2.28;;
11113;SDS011;5610;52.154;9.198;2023-02-28T04:31:14;3.47;;;2.40;;
11113;SDS011;5610;52.154;9.198;2023-02-28T04:34:01;2.33;;;2.13;;
11113;SDS011;5610;52.154;9.198;2023-02-28T04:36:47;4.07;;;2.50;;
11113;SDS011;5610;52.154;9.198;2023-02-28T04:39:34;3.72;;;2.28;;
11113;SDS011;5610;52.154;9.198;2023-02-28T04:42:21;2.30;;;2.20;;
11113;SDS011;5610;52.154;9.198;2023-02-28T04:45:07;2.35;;;2.00;;
11113;SDS011;5610;52.154;9.198;2023-02-28T04:47:54;1.85;;;1.75;;
11113;SDS011;5610;52.154;9.198;2023-02-28T04:50:40;2.30;;;2.20;;
11113;SDS011;5610;52.154;9.198;2023-02-28T04:53:26;2.55;;;2.28;;
11113;SDS011;5610;52.154;9.198;2023-02-28T04:56:13;2.70;;;2.30;;
11113;SDS011;5610;52.154;9.198;2023-02-28T04:59:00;2.42;;;2.20;;
11113;SDS011;5610;52.154;9.198;2023-02-28T05:01:45;2.28;;;2.05;;
11113;SDS011;5610;52.154;9.198;2023-02-28T05:04:32;2.05;;;1.95;;
11113;SDS011;5610;52.154;9.198;2023-02-28T05:07:20;3.35;;;1.90;;
11113;SDS011;5610;52.154;9.198;2023-02-28T05:10:05;3.55;;;2.50;;
11113;SDS011;5610;52.154;9.198;2023-02-28T05:12:51;3.25;;;2.95;;
11113;SDS011;5610;52.154;9.198;2023-02-28T05:15:36;2.95;;;2.70;;
11113;SDS011;5610;52.154;9.198;2023-02-28T05:18:22;3.40;;;2.70;;
11113;SDS011;5610;52.154;9.198;2023-02-28T05:21:14;9.40;;;3.42;;
11113;SDS011;5610;52.154;9.198;2023-02-28T05:24:10;5.30;;;3.50;;
11113;SDS011;5610;52.154;9.198;2023-02-28T05:26:56;6.63;;;4.32;;
11113;SDS011;5610;52.154;9.198;2023-02-28T05:29:42;5.03;;;4.00;;
11113;SDS011;5610;52.154;9.198;2023-02-28T05:32:27;5.10;;;3.60;;
11113;SDS011;5610;52.154;9.198;2023-02-28T05:35:12;4.30;;;3.85;;
11113;SDS011;5610;52.154;9.198;2023-02-28T05:37:57;5.55;;;4.97;;
11113;SDS011;5610;52.154;9.198;2023-02-28T05:40:44;6.10;;;5.50;;
11113;SDS011;5610;52.154;9.198;2023-02-28T05:43:29;6.65;;;4.95;;
11113;SDS011;5610;52.154;9.198;2023-02-28T05:46:15;5.72;;;5.05;;
11113;SDS011;5610;52.154;9.198;2023-02-28T05:49:00;3.58;;;3.28;;
11113;SDS011;5610;52.154;9.198;2023-02-28T05:51:46;3.88;;;3.45;;
11113;SDS011;5610;52.154;9.198;2023-02-28T05:54:31;4.95;;;3.58;;
11113;SDS011;5610;52.154;9.198;2023-02-28T05:57:18;4.70;;;4.30;;
11113;SDS011;5610;52.154;9.198;2023-02-28T06:00:04;4.45;;;3.63;;
11113;SDS011;5610;52.154;9.198;2023-02-28T06:02:55;5.82;;;4.00;;
11113;SDS011;5610;52.154;9.198;2023-02-28T06:05:43;4.85;;;4.45;;
11113;SDS011;5610;52.154;9.198;2023-02-28T06:08:28;8.07;;;6.15;;
11113;SDS011;5610;52.154;9.198;2023-02-28T06:11:14;9.65;;;7.85;;
11113;SDS011;5610;52.154;9.198;2023-02-28T06:14:01;9.73;;;7.00;;
11113;SDS011;5610;52.154;9.198;2023-02-28T06:16:47;8.73;;;7.03;;
11113;SDS011;5610;52.154;9.198;2023-02-28T06:19:32;7.15;;;5.88;;
11113;SDS011;5610;52.154;9.198;2023-02-28T06:22:17;8.00;;;4.93;;
11113;SDS011;5610;52.154;9.198;2023-02-28T06:25:03;6.30;;;4.97;;
11113;SDS011;5610;52.154;9.198;2023-02-28T06:27:49;5.43;;;4.93;;
11113;SDS011;5610;52.154;9.198;2023-02-28T06:30:36;5.70;;;5.20;;
11113;SDS011;5610;52.154;9.198;2023-02-28T06:33:21;7.53;;;4.97;;
11113;SDS011;5610;52.154;9.198;2023-02-28T06:36:07;4.63;;;4.22;;
11113;SDS011;5610;52.154;9.198;2023-02-28T06:38:53;4.97;;;4.40;;
11113;SDS011;5610;52.154;9.198;2023-02-28T06:41:39;4.45;;;4.13;;
11113;SDS011;5610;52.154;9.198;2023-02-28T06:44:25;6.50;;;5.90;;
11113;SDS011;5610;52.154;9.198;2023-02-28T06:47:12;5.95;;;5.35;;
11113;SDS011;5610;52.154;9.198;2023-02-28T06:49:57;6.10;;;5.50;;
11113;SDS011;5610;52.154;9.198;2023-02-28T06:52:45;7.85;;;7.15;;
11113;SDS011;5610;52.154;9.198;2023-02-28T06:55:30;5.65;;;5.25;;
11113;SDS011;5610;52.154;9.198;2023-02-28T06:58:16;9.48;;;7.63;;
11113;SDS011;5610;52.154;9.198;2023-02-28T07:01:02;9.45;;;6.60;;
11113;SDS011;5610;52.154;9.198;2023-02-28T07:03:49;5.47;;;4.53;;
11113;SDS011;5610;52.154;9.198;2023-02-28T07:06:35;9.95;;;6.82;;
11113;SDS011;5610;52.154;9.198;2023-02-28T07:09:21;9.73;;;7.13;;
11113;SDS011;5610;52.154;9.198;2023-02-28T07:12:06;10.18;;;9.23;;
11113;SDS011;5610;52.154;9.198;2023-02-28T07:14:52;8.88;;;7.47;;
11113;SDS011;5610;52.154;9.198;2023-02-28T07:17:38;9.82;;;7.80;;
11113;SDS011;5610;52.154;9.198;2023-02-28T07:20:24;8.45;;;7.15;;
11113;SDS011;5610;52.154;9.198;2023-02-28T07:23:10;8.52;;;7.63;;
11113;SDS011;5610;52.154;9.198;2023-02-28T07:25:55;7.07;;;6.38;;
11113;SDS011;5610;52.154;9.198;2023-02-28T07:28:41;5.60;;;5.10;;
11113;SDS011;5610;52.154;9.198;2023-02-28T07:31:26;6.10;;;5.50;;
11113;SDS011;5610;52.154;9.198;2023-02-28T07:34:12;19.23;;;12.05;;
11113;SDS011;5610;52.154;9.198;2023-02-28T07:36:59;21.02;;;12.65;;
11113;SDS011;5610;52.154;9.198;2023-02-28T07:39:47;14.35;;;10.30;;
11113;SDS011;5610;52.154;9.198;2023-02-28T07:42:32;7.50;;;6.40;;
11113;SDS011;5610;52.154;9.198;2023-02-28T07:45:20;6.20;;;5.35;;
11113;SDS011;5610;52.154;9.198;2023-02-28T07:48:06;4.93;;;4.50;;
11113;SDS011;5610;52.154;9.198;2023-02-28T07:50:54;6.25;;;4.70;;
11113;SDS011;5610;52.154;9.198;2023-02-28T07:53:41;5.00;;;4.50;;
11113;SDS011;5610;52.154;9.198;2023-02-28T07:56:26;7.70;;;5.38;;
11113;SDS011;5610;52.154;9.198;2023-02-28T07:59:11;5.15;;;4.65;;
11113;SDS011;5610;52.154;9.198;2023-02-28T08:01:57;6.28;;;4.95;;
11113;SDS011;5610;52.154;9.198;2023-02-28T08:04:43;7.38;;;6.68;;
11113;SDS011;5610;52.154;9.198;2023-02-28T08:07:28;8.23;;;6.80;;
11113;SDS011;5610;52.154;9.198;2023-02-28T08:10:15;6.63;;;6.00;;
11113;SDS011;5610;52.154;9.198;2023-02-28T08:13:00;4.90;;;4.35;;
11113;SDS011;5610;52.154;9.198;2023-02-28T08:15:46;4.40;;;4.00;;
11113;SDS011;5610;52.154;9.198;2023-02-28T08:18:32;4.95;;;4.25;;
11113;SDS011;5610;52.154;9.198;2023-02-28T08:21:17;6.40;;;4.43;;
11113;SDS011;5610;52.154;9.198;2023-02-28T08:24:02;5.15;;;4.20;;
11113;SDS011;5610;52.154;9.198;2023-02-28T08:26:49;3.30;;;3.10;;
11113;SDS011;5610;52.154;9.198;2023-02-28T08:29:36;4.80;;;4.20;;
11113;SDS011;5610;52.154;9.198;2023-02-28T08:32:21;6.70;;;3.88;;
11113;SDS011;5610;52.154;9.198;2023-02-28T08:35:07;6.03;;;4.03;;
11113;SDS011;5610;52.154;9.198;2023-02-28T08:37:53;4.75;;;4.05;;
11113;SDS011;5610;52.154;9.198;2023-02-28T08:40:39;4.88;;;3.90;;
11113;SDS011;5610;52.154;9.198;2023-02-28T08:43:25;4.30;;;3.65;;
11113;SDS011;5610;52.154;9.198;2023-02-28T08:46:12;3.90;;;3.60;;
11113;SDS011;5610;52.154;9.198;2023-02-28T08:48:58;4.25;;;3.78;;
11113;SDS011;5610;52.154;9.198;2023-02-28T08:51:45;4.10;;;3.70;;
11113;SDS011;5610;52.154;9.198;2023-02-28T08:54:31;6.05;;;3.78;;
11113;SDS011;5610;52.154;9.198;2023-02-28T08:57:16;4.60;;;3.35;;
11113;SDS011;5610;52.154;9.198;2023-02-28T09:00:04;3.80;;;3.30;;
11113;SDS011;5610;52.154;9.198;2023-02-28T09:02:50;3.20;;;2.95;;
11113;SDS011;5610;52.154;9.198;2023-02-28T09:05:35;3.67;;;3.20;;
11113;SDS011;5610;52.154;9.198;2023-02-28T09:08:20;2.20;;;2.00;;
11113;SDS011;5610;52.154;9.198;2023-02-28T09:11:05;2.88;;;2.22;;
11113;SDS011;5610;52.154;9.198;2023-02-28T09:13:51;2.72;;;2.53;;
11113;SDS011;5610;52.154;9.198;2023-02-28T09:16:38;3.33;;;2.10;;
11113;SDS011;5610;52.154;9.198;2023-02-28T09:19:23;3.95;;;2.53;;
11113;SDS011;5610;52.154;9.198;2023-02-28T09:22:08;3.65;;;2.70;;
11113;SDS011;5610;52.154;9.198;2023-02-28T09:24:54;3.00;;;2.53;;
11113;SDS011;5610;52.154;9.198;2023-02-28T09:27:40;3.45;;;3.00;;
11113;SDS011;5610;52.154;9.198;2023-02-28T09:30:25;5.07;;;2.97;;
11113;SDS011;5610;52.154;9.198;2023-02-28T09:33:12;5.50;;;3.00;;
11113;SDS011;5610;52.154;9.198;2023-02-28T09:35:58;4.55;;;3.30;;
11113;SDS011;5610;52.154;9.198;2023-02-28T09:38:45;7.13;;;3.10;;
11113;SDS011;5610;52.154;9.198;2023-02-28T09:41:32;4.73;;;3.80;;
11113;SDS011;5610;52.154;9.198;2023-02-28T09:44:31;3.80;;;3.50;;
11113;SDS011;5610;52.154;9.198;2023-02-28T09:47:23;8.07;;;3.50;;
11113;SDS011;5610;52.154;9.198;2023-02-28T09:50:16;7.03;;;3.83;;
11113;SDS011;5610;52.154;9.198;2023-02-28T09:53:11;4.30;;;3.90;;
11113;SDS011;5610;52.154;9.198;2023-02-28T09:56:04;4.57;;;3.60;;
11113;SDS011;5610;52.154;9.198;2023-02-28T09:58:54;3.67;;;3.40;;
11113;SDS011;5610;52.154;9.198;2023-02-28T10:01:44;5.87;;;3.27;;
11113;SDS011;5610;52.154;9.198;2023-02-28T10:04:41;5.20;;;3.40;;
11113;SDS011;5610;52.154;9.198;2023-02-28T10:07:44;3.93;;;3.03;;
11113;SDS011;5610;52.154;9.198;2023-02-28T10:10:39;3.63;;;3.20;;
11113;SDS011;5610;52.154;9.198;2023-02-28T10:13:27;3.70;;;3.23;;
11113;SDS011;5610;52.154;9.198;2023-02-28T10:16:21;3.78;;;2.70;;
11113;SDS011;5610;52.154;9.198;2023-02-28T10:19:11;3.00;;;2.70;;
11113;SDS011;5610;52.154;9.198;2023-02-28T10:22:05;2.57;;;2.37;;
11113;SDS011;5610;52.154;9.198;2023-02-28T10:24:58;3.47;;;2.30;;
11113;SDS011;5610;52.154;9.198;2023-02-28T10:27:46;2.60;;;2.07;;
11113;SDS011;5610;52.154;9.198;2023-02-28T10:30:32;2.23;;;2.03;;
11113;SDS011;5610;52.154;9.198;2023-02-28T10:33:19;1.87;;;1.70;;
11113;SDS011;5610;52.154;9.198;2023-02-28T10:36:08;3.47;;;2.10;;
11113;SDS011;5610;52.154;9.198;2023-02-28T10:38:58;2.63;;;1.90;;
11113;SDS011;5610;52.154;9.198;2023-02-28T10:41:45;3.77;;;2.43;;
11113;SDS011;5610;52.154;9.198;2023-02-28T10:44:30;2.10;;;1.90;;
11113;SDS011;5610;52.154;9.198;2023-02-28T10:47:16;1.93;;;1.73;;
11113;SDS011;5610;52.154;9.198;2023-02-28T10:50:04;2.63;;;2.10;;
11113;SDS011;5610;52.154;9.198;2023-02-28T10:52:49;2.70;;;2.50;;
11113;SDS011;5610;52.154;9.198;2023-02-28T10:55:35;2.90;;;2.10;;
11113;SDS011;5610;52.154;9.198;2023-02-28T10:58:23;2.20;;;1.93;;
11113;SDS011;5610;52.154;9.198;2023-02-28T11:01:12;2.30;;;1.73;;
11113;SDS011;5610;52.154;9.198;2023-02-28T11:03:59;1.60;;;1.50;;
11113;SDS011;5610;52.154;9.198;2023-02-28T11:06:44;3.63;;;2.23;;
11113;SDS011;5610;52.154;9.198;2023-02-28T11:09:30;2.83;;;2.30;;
11113;SDS011;5610;52.154;9.198;2023-02-28T11:12:20;2.50;;;1.97;;
11113;SDS011;5610;52.154;9.198;2023-02-28T11:15:18;2.13;;;1.73;;
11113;SDS011;5610;52.154;9.198;2023-02-28T11:18:15;3.10;;;2.00;;
11113;SDS011;5610;52.154;9.198;2023-02-28T11:21:07;2.23;;;1.93;;
11113;SDS011;5610;52.154;9.198;2023-02-28T11:23:55;3.10;;;2.50;;
11113;SDS011;5610;52.154;9.198;2023-02-28T11:26:47;2.20;;;1.93;;
11113;SDS011;5610;52.154;9.198;2023-02-28T11:29:33;2.87;;;2.00;;
11113;SDS011;5610;52.154;9.198;2023-02-28T11:32:21;4.47;;;1.90;;
11113;SDS011;5610;52.154;9.198;2023-02-28T11:35:14;2.57;;;1.80;;
11113;SDS011;5610;52.154;9.198;2023-02-28T11:38:07;2.97;;;1.90;;
11113;SDS011;5610;52.154;9.198;2023-02-28T11:41:05;2.67;;;2.47;;
11113;SDS011;5610;52.154;9.198;2023-02-28T11:44:03;3.53;;;2.83;;
11113;SDS011;5610;52.154;9.198;2023-02-28T11:46:56;3.13;;;2.50;;
11113;SDS011;5610;52.154;9.198;2023-02-28T11:49:47;2.57;;;2.23;;
11113;SDS011;5610;52.154;9.198;2023-02-28T11:52:45;2.30;;;1.90;;
11113;SDS011;5610;52.154;9.198;2023-02-28T11:55:36;2.73;;;2.07;;
11113;SDS011;5610;52.154;9.198;2023-02-28T11:58:29;1.90;;;1.80;;
11113;SDS011;5610;52.154;9.198;2023-02-28T12:01:28;2.17;;;1.80;;
11113;SDS011;5610;52.154;9.198;2023-02-28T12:04:39;2.10;;;1.80;;
11113;SDS011;5610;52.154;9.198;2023-02-28T12:07:45;3.47;;;1.50;;
11113;SDS011;5610;52.154;9.198;2023-02-28T12:10:43;2.50;;;2.20;;
11113;SDS011;5610;52.154;9.198;2023-02-28T12:13:37;3.87;;;2.53;;
11113;SDS011;5610;52.154;9.198;2023-02-28T12:19:45;3.27;;;2.00;;
11113;SDS011;5610;52.154;9.198;2023-02-28T12:22:41;3.20;;;2.30;;
11113;SDS011;5610;52.154;9.198;2023-02-28T12:25:38;4.00;;;2.07;;
11113;SDS011;5610;52.154;9.198;2023-02-28T12:28:34;2.30;;;2.10;;
11113;SDS011;5610;52.154;9.198;2023-02-28T12:31:23;2.40;;;2.07;;
11113;SDS011;5610;52.154;9.198;2023-02-28T12:34:10;3.10;;;2.60;;
11113;SDS011;5610;52.154;9.198;2023-02-28T12:37:01;2.90;;;1.70;;
11113;SDS011;5610;52.154;9.198;2023-02-28T12:39:54;3.30;;;2.27;;
11113;SDS011;5610;52.154;9.198;2023-02-28T12:42:45;2.17;;;1.97;;
11113;SDS011;5610;52.154;9.198;2023-02-28T12:45:38;2.20;;;2.00;;
11113;SDS011;5610;52.154;9.198;2023-02-28T12:48:28;2.33;;;2.13;;
11113;SDS011;5610;52.154;9.198;2023-02-28T12:51:16;2.23;;;2.03;;
11113;SDS011;5610;52.154;9.198;2023-02-28T12:54:04;3.60;;;2.60;;
11113;SDS011;5610;52.154;9.198;2023-02-28T12:57:01;3.70;;;2.37;;
11113;SDS011;5610;52.154;9.198;2023-02-28T12:59:55;3.10;;;2.20;;
11113;SDS011;5610;52.154;9.198;2023-02-28T13:02:53;3.37;;;2.70;;
11113;SDS011;5610;52.154;9.198;2023-02-28T13:06:07;2.57;;;2.33;;
11113;SDS011;5610;52.154;9.198;2023-02-28T13:09:13;2.33;;;2.13;;
11113;SDS011;5610;52.154;9.198;2023-02-28T13:12:01;3.17;;;2.87;;
11113;SDS011;5610;52.154;9.198;2023-02-28T13:15:05;4.50;;;2.80;;
11113;SDS011;5610;52.154;9.198;2023-02-28T13:17:56;2.83;;;2.27;;
11113;SDS011;5610;52.154;9.198;2023-02-28T13:20:47;3.53;;;3.20;;
11113;SDS011;5610;52.154;9.198;2023-02-28T13:27:17;3.40;;;2.53;;
11113;SDS011;5610;52.154;9.198;2023-02-28T13:34:12;3.20;;;2.57;;
11113;SDS011;5610;52.154;9.198;2023-02-28T13:40:27;2.73;;;2.50;;
11113;SDS011;5610;52.154;9.198;2023-02-28T13:43:18;3.00;;;2.27;;
11113;SDS011;5610;52.154;9.198;2023-02-28T13:46:08;3.00;;;2.70;;
11113;SDS011;5610;52.154;9.198;2023-02-28T13:48:56;4.40;;;3.87;;
11113;SDS011;5610;52.154;9.198;2023-02-28T13:52:02;3.40;;;2.90;;
11113;SDS011;5610;52.154;9.198;2023-02-28T13:55:06;4.43;;;2.60;;
11113;SDS011;5610;52.154;9.198;2023-02-28T13:58:16;3.13;;;2.23;;
11113;SDS011;5610;52.154;9.198;2023-02-28T14:04:43;3.13;;;2.50;;
11113;SDS011;5610;52.154;9.198;2023-02-28T14:07:37;2.50;;;2.30;;
11113;SDS011;5610;52.154;9.198;2023-02-28T14:10:28;2.80;;;2.40;;
11113;SDS011;5610;52.154;9.198;2023-02-28T14:16:34;7.77;;;5.33;;
11113;SDS011;5610;52.154;9.198;2023-02-28T14:19:24;2.87;;;2.10;;
11113;SDS011;5610;52.154;9.198;2023-02-28T14:22:13;8.40;;;7.70;;
11113;SDS011;5610;52.154;9.198;2023-02-28T14:25:29;8.87;;;8.07;;
11113;SDS011;5610;52.154;9.198;2023-02-28T14:28:19;3.10;;;2.90;;
11113;SDS011;5610;52.154;9.198;2023-02-28T14:31:12;4.13;;;2.33;;
11113;SDS011;5610;52.154;9.198;2023-02-28T14:34:03;4.47;;;3.43;;
11113;SDS011;5610;52.154;9.198;2023-02-28T14:37:01;3.73;;;2.90;;
11113;SDS011;5610;52.154;9.198;2023-02-28T14:39:48;4.60;;;3.40;;
11113;SDS011;5610;52.154;9.198;2023-02-28T14:42:35;4.03;;;3.70;;
11113;SDS011;5610;52.154;9.198;2023-02-28T14:45:26;4.70;;;4.30;;
11113;SDS011;5610;52.154;9.198;2023-02-28T14:48:15;3.70;;;3.40;;
11113;SDS011;5610;52.154;9.198;2023-02-28T14:51:02;6.40;;;4.83;;
11113;SDS011;5610;52.154;9.198;2023-02-28T14:53:49;4.13;;;3.67;;
11113;SDS011;5610;52.154;9.198;2023-02-28T14:56:37;5.20;;;4.47;;
11113;SDS011;5610;52.154;9.198;2023-02-28T14:59:25;5.63;;;5.03;;
11113;SDS011;5610;52.154;9.198;2023-02-28T15:02:23;3.40;;;3.10;;
11113;SDS011;5610;52.154;9.198;2023-02-28T15:05:21;5.70;;;3.33;;
11113;SDS011;5610;52.154;9.198;2023-02-28T15:08:11;6.70;;;6.07;;
11113;SDS011;5610;52.154;9.198;2023-02-28T15:10:59;3.60;;;3.27;;
11113;SDS011;5610;52.154;9.198;2023-02-28T15:13:47;3.53;;;3.23;;
11113;SDS011;5610;52.154;9.198;2023-02-28T15:16:36;5.70;;;4.60;;
11113;SDS011;5610;52.154;9.198;2023-02-28T15:19:25;3.33;;;2.93;;
11113;SDS011;5610;52.154;9.198;2023-02-28T15:22:15;3.00;;;2.70;;
11113;SDS011;5610;52.154;9.198;2023-02-28T15:25:04;3.47;;;3.17;;
11113;SDS011;5610;52.154;9.198;2023-02-28T15:27:52;2.80;;;2.60;;
11113;SDS011;5610;52.154;9.198;2023-02-28T15:30:39;3.17;;;2.97;;
11113;SDS011;5610;52.154;9.198;2023-02-28T15:33:37;3.23;;;2.80;;
11113;SDS011;5610;52.154;9.198;2023-02-28T15:36:24;4.33;;;2.90;;
11113;SDS011;5610;52.154;9.198;2023-02-28T15:39:22;3.73;;;3.43;;
11113;SDS011;5610;52.154;9.198;2023-02-28T15:42:10;3.13;;;2.87;;
11113;SDS011;5610;52.154;9.198;2023-02-28T15:44:56;3.20;;;2.77;;
11113;SDS011;5610;52.154;9.198;2023-02-28T15:47:44;6.00;;;3.30;;
11113;SDS011;5610;52.154;9.198;2023-02-28T15:50:31;3.93;;;3.30;;
11113;SDS011;5610;52.154;9.198;2023-02-28T15:53:17;3.33;;;3.03;;
11113;SDS011;5610;52.154;9.198;2023-02-28T15:56:21;4.37;;;3.00;;
11113;SDS011;5610;52.154;9.198;2023-02-28T15:59:13;3.43;;;3.07;;
11113;SDS011;5610;52.154;9.198;2023-02-28T16:02:11;3.20;;;2.90;;
11113;SDS011;5610;52.154;9.198;2023-02-28T16:05:00;4.70;;;2.73;;
11113;SDS011;5610;52.154;9.198;2023-02-28T16:08:11;4.90;;;4.30;;
11113;SDS011;5610;52.154;9.198;2023-02-28T16:10:59;4.43;;;3.30;;
11113;SDS011;5610;52.154;9.198;2023-02-28T16:13:45;3.70;;;3.40;;
11113;SDS011;5610;52.154;9.198;2023-02-28T16:16:31;3.07;;;2.80;;
11113;SDS011;5610;52.154;9.198;2023-02-28T16:19:18;5.90;;;3.50;;
11113;SDS011;5610;52.154;9.198;2023-02-28T16:22:04;3.70;;;3.40;;
11113;SDS011;5610;52.154;9.198;2023-02-28T16:24:49;4.40;;;3.70;;
11113;SDS011;5610;52.154;9.198;2023-02-28T16:27:35;3.77;;;3.40;;
11113;SDS011;5610;52.154;9.198;2023-02-28T16:30:24;4.50;;;4.10;;
11113;SDS011;5610;52.154;9.198;2023-02-28T16:33:11;4.93;;;3.90;;
11113;SDS011;5610;52.154;9.198;2023-02-28T16:35:56;3.97;;;3.57;;
11113;SDS011;5610;52.154;9.198;2023-02-28T16:38:42;7.40;;;3.60;;
11113;SDS011;5610;52.154;9.198;2023-02-28T16:41:27;3.70;;;3.40;;
11113;SDS011;5610;52.154;9.198;2023-02-28T16:44:14;5.70;;;3.70;;
11113;SDS011;5610;52.154;9.198;2023-02-28T16:47:11;5.53;;;4.67;;
11113;SDS011;5610;52.154;9.198;2023-02-28T16:49:56;4.37;;;3.93;;
11113;SDS011;5610;52.154;9.198;2023-02-28T16:52:42;12.73;;;6.30;;
11113;SDS011;5610;52.154;9.198;2023-02-28T16:55:27;5.47;;;4.97;;
11113;SDS011;5610;52.154;9.198;2023-02-28T16:58:13;5.90;;;5.30;;
11113;SDS011;5610;52.154;9.198;2023-02-28T17:01:01;14.13;;;5.13;;
11113;SDS011;5610;52.154;9.198;2023-02-28T17:03:47;4.87;;;3.73;;
11113;SDS011;5610;52.154;9.198;2023-02-28T17:06:33;8.67;;;4.47;;
11113;SDS011;5610;52.154;9.198;2023-02-28T17:09:19;4.70;;;3.57;;
11113;SDS011;5610;52.154;9.198;2023-02-28T17:12:06;5.10;;;4.63;;
11113;SDS011;5610;52.154;9.198;2023-02-28T17:14:51;4.67;;;3.90;;
11113;SDS011;5610;52.154;9.198;2023-02-28T17:17:37;5.38;;;3.78;;
11113;SDS011;5610;52.154;9.198;2023-02-28T17:20:24;4.60;;;4.20;;
11113;SDS011;5610;52.154;9.198;2023-02-28T17:23:10;6.13;;;4.78;;
11113;SDS011;5610;52.154;9.198;2023-02-28T17:25:55;6.82;;;5.85;;
11113;SDS011;5610;52.154;9.198;2023-02-28T17:28:41;9.70;;;7.22;;
11113;SDS011;5610;52.154;9.198;2023-02-28T17:31:27;6.53;;;5.88;;
11113;SDS011;5610;52.154;9.198;2023-02-28T17:34:13;8.40;;;7.18;;
11113;SDS011;5610;52.154;9.198;2023-02-28T17:37:03;6.85;;;6.13;;
11113;SDS011;5610;52.154;9.198;2023-02-28T17:39:48;8.07;;;7.28;;